Time;durP1;ratioP1;P1;durP2;ratioP2;P2;SDS_P1;SDS_P2;PMS_P1;PMS_P2;Temp;Humidity;BMP_temperature;BMP_pressure;BME280_temperature;BME280_humidity;BME280_pressure;Samples;Min_cycle;Max_cycle;Signal;HPM_P1;HPM_P2
2024/02/26 00:00:05;;;;;;;4.90;1.73;;;;;;;;;;5068499;28;20089;-65
2024/02/26 00:02:32;;;;;;;2.63;1.40;;;;;;;;;;5074489;28;20059;-64
2024/02/26 00:04:57;;;;;;;5.93;1.58;;;;;;;;;;5071399;28;20035;-65
2024/02/26 00:07:23;;;;;;;2.63;1.50;;;;;;;;;;5071154;28;20024;-65
2024/02/26 00:09:49;;;;;;;2.47;1.30;;;;;;;;;;5064953;28;20159;-64
2024/02/26 00:12:15;;;;;;;2.28;1.40;;;;;;;;;;5070523;28;20052;-64
2024/02/26 00:14:41;;;;;;;1.65;1.10;;;;;;;;;;5050071;28;20029;-63
2024/02/26 00:17:07;;;;;;;4.50;1.45;;;;;;;;;;5058509;28;20025;-63
2024/02/26 00:19:33;;;;;;;3.55;1.70;;;;;;;;;;5070663;28;20029;-63
2024/02/26 00:21:59;;;;;;;1.55;1.15;;;;;;;;;;5072190;28;20509;-62
2024/02/26 00:24:25;;;;;;;2.58;1.45;;;;;;;;;;5072003;28;20371;-64
2024/02/26 00:26:54;;;;;;;2.42;1.17;;;;;;;;;;5067180;28;20036;-65
2024/02/26 00:29:20;;;;;;;6.30;1.40;;;;;;;;;;5071009;28;20032;-65
2024/02/26 00:31:46;;;;;;;3.53;1.23;;;;;;;;;;5070631;28;20100;-63
2024/02/26 00:34:12;;;;;;;3.90;1.40;;;;;;;;;;5072861;28;20111;-63
2024/02/26 00:36:38;;;;;;;4.05;1.60;;;;;;;;;;5068867;28;20400;-64
2024/02/26 00:39:04;;;;;;;1.55;1.10;;;;;;;;;;5066885;28;20402;-65
2024/02/26 00:41:30;;;;;;;2.42;1.20;;;;;;;;;;5064227;28;20115;-63
2024/02/26 00:43:56;;;;;;;2.28;1.17;;;;;;;;;;5069923;28;20078;-64
2024/02/26 00:46:22;;;;;;;1.85;1.10;;;;;;;;;;5065839;28;20028;-63
2024/02/26 00:48:48;;;;;;;5.90;1.20;;;;;;;;;;5051199;28;20124;-63
2024/02/26 00:51:15;;;;;;;2.05;1.20;;;;;;;;;;5071007;28;20021;-62
2024/02/26 00:53:41;;;;;;;2.83;1.30;;;;;;;;;;5064444;28;20681;-64
2024/02/26 00:56:07;;;;;;;3.70;1.40;;;;;;;;;;5069524;28;20044;-62
2024/02/26 00:58:33;;;;;;;1.70;1.17;;;;;;;;;;5068205;28;20020;-63
2024/02/26 01:00:59;;;;;;;3.35;1.00;;;;;;;;;;5067215;28;20017;-63
2024/02/26 01:03:25;;;;;;;1.85;1.20;;;;;;;;;;5070859;28;20031;-64
2024/02/26 01:05:51;;;;;;;1.83;0.90;;;;;;;;;;5069236;28;20020;-65
2024/02/26 01:08:17;;;;;;;1.52;0.95;;;;;;;;;;5048361;28;20103;-64
2024/02/26 01:10:43;;;;;;;1.15;0.80;;;;;;;;;;5052182;28;20036;-63
2024/02/26 01:13:08;;;;;;;3.78;1.17;;;;;;;;;;5071315;28;20020;-63
2024/02/26 01:15:34;;;;;;;2.17;1.10;;;;;;;;;;5065606;28;20021;-62
2024/02/26 01:18:00;;;;;;;2.45;1.02;;;;;;;;;;5071732;28;20075;-64
2024/02/26 01:20:26;;;;;;;1.38;0.88;;;;;;;;;;5068334;28;20032;-63
2024/02/26 01:22:52;;;;;;;5.00;1.27;;;;;;;;;;5065408;28;20039;-63
2024/02/26 01:25:18;;;;;;;1.52;0.90;;;;;;;;;;5060078;28;20111;-62
2024/02/26 01:27:44;;;;;;;9.75;0.98;;;;;;;;;;5069127;28;20076;-63
2024/02/26 01:30:10;;;;;;;1.30;0.70;;;;;;;;;;5067786;28;20032;-63
2024/02/26 01:32:36;;;;;;;3.75;1.00;;;;;;;;;;5074062;28;20025;-62
2024/02/26 01:35:09;;;;;;;0.70;0.60;;;;;;;;;;5071733;28;20129;-64
2024/02/26 01:37:35;;;;;;;2.08;0.95;;;;;;;;;;5072533;28;20074;-64
2024/02/26 01:40:03;;;;;;;1.67;0.88;;;;;;;;;;5070183;28;20474;-64
2024/02/26 01:42:30;;;;;;;2.03;1.20;;;;;;;;;;5071978;28;20502;-63
2024/02/26 01:44:56;;;;;;;2.10;0.90;;;;;;;;;;5072738;28;20024;-62
2024/02/26 01:47:23;;;;;;;3.05;0.98;;;;;;;;;;5074326;28;20028;-63
2024/02/26 01:49:49;;;;;;;2.72;1.13;;;;;;;;;;5076540;28;20024;-63
2024/02/26 01:52:16;;;;;;;1.02;0.90;;;;;;;;;;5074553;28;20029;-63
2024/02/26 01:54:43;;;;;;;2.22;1.08;;;;;;;;;;5071281;28;20032;-63
2024/02/26 01:57:09;;;;;;;2.03;0.80;;;;;;;;;;5068689;28;20025;-64
2024/02/26 01:59:35;;;;;;;1.67;0.90;;;;;;;;;;5070510;28;20382;-62
2024/02/26 02:02:04;;;;;;;1.08;0.73;;;;;;;;;;5071900;28;20117;-63
2024/02/26 02:04:30;;;;;;;1.20;0.90;;;;;;;;;;5074095;28;20469;-63
2024/02/26 02:06:56;;;;;;;1.35;0.80;;;;;;;;;;5069463;28;20021;-61
2024/02/26 02:09:22;;;;;;;1.55;1.00;;;;;;;;;;5065883;28;20544;-63
2024/02/26 02:11:49;;;;;;;0.85;0.73;;;;;;;;;;5067526;28;20478;-62
2024/02/26 02:14:15;;;;;;;1.88;0.90;;;;;;;;;;5075748;28;20472;-65
2024/02/26 02:16:41;;;;;;;5.50;1.52;;;;;;;;;;5069697;28;20031;-63
2024/02/26 02:19:07;;;;;;;2.42;0.70;;;;;;;;;;5070496;28;20456;-61
2024/02/26 02:21:33;;;;;;;2.85;1.13;;;;;;;;;;5067816;28;20025;-63
2024/02/26 02:23:59;;;;;;;0.88;0.70;;;;;;;;;;5072758;28;20604;-62
2024/02/26 02:26:25;;;;;;;1.70;0.90;;;;;;;;;;5067523;28;20048;-63
2024/02/26 02:28:51;;;;;;;1.98;0.90;;;;;;;;;;5072553;28;20029;-62
2024/02/26 02:31:17;;;;;;;1.75;0.90;;;;;;;;;;5069059;28;20526;-62
2024/02/26 02:33:43;;;;;;;1.13;0.90;;;;;;;;;;5069484;28;20052;-62
2024/02/26 02:36:10;;;;;;;1.15;0.75;;;;;;;;;;5052035;28;20028;-63
2024/02/26 02:38:37;;;;;;;1.35;1.00;;;;;;;;;;5072980;28;20085;-65
2024/02/26 02:41:03;;;;;;;1.95;0.80;;;;;;;;;;5069833;28;20025;-64
2024/02/26 02:43:29;;;;;;;4.10;0.80;;;;;;;;;;5066824;28;20114;-63
2024/02/26 02:45:55;;;;;;;1.50;0.85;;;;;;;;;;5054807;28;20013;-64
2024/02/26 02:48:21;;;;;;;1.02;0.73;;;;;;;;;;5052446;28;20647;-64
2024/02/26 02:50:47;;;;;;;3.05;0.95;;;;;;;;;;5070603;28;20025;-63
2024/02/26 02:53:13;;;;;;;2.05;0.70;;;;;;;;;;5068335;28;20025;-64
2024/02/26 02:55:39;;;;;;;2.72;1.27;;;;;;;;;;5068004;28;20020;-64
2024/02/26 02:58:05;;;;;;;4.20;0.90;;;;;;;;;;5066327;28;20449;-63
2024/02/26 03:00:31;;;;;;;2.97;1.10;;;;;;;;;;5070129;28;20032;-62
2024/02/26 03:02:56;;;;;;;3.38;1.00;;;;;;;;;;5066361;28;20036;-63
2024/02/26 03:05:22;;;;;;;1.00;0.80;;;;;;;;;;5068415;28;20032;-64
2024/02/26 03:07:48;;;;;;;3.55;0.88;;;;;;;;;;5072047;28;20067;-63
2024/02/26 03:10:14;;;;;;;2.45;0.70;;;;;;;;;;5061754;28;20021;-64
2024/02/26 03:12:40;;;;;;;2.50;0.90;;;;;;;;;;5050735;28;20111;-64
2024/02/26 03:15:07;;;;;;;3.00;1.08;;;;;;;;;;5069713;28;20538;-63
2024/02/26 03:17:32;;;;;;;2.33;1.15;;;;;;;;;;5052679;28;20020;-63
2024/02/26 03:19:58;;;;;;;2.03;0.90;;;;;;;;;;5050964;28;20481;-63
2024/02/26 03:22:24;;;;;;;1.42;1.10;;;;;;;;;;5059524;28;20471;-64
2024/02/26 03:24:50;;;;;;;2.08;1.00;;;;;;;;;;5069442;28;20081;-63
2024/02/26 03:27:16;;;;;;;1.20;0.88;;;;;;;;;;5066583;28;20032;-63
2024/02/26 03:29:42;;;;;;;1.38;0.93;;;;;;;;;;5068733;28;20510;-62
2024/02/26 03:32:08;;;;;;;1.55;0.80;;;;;;;;;;5071722;28;20051;-61
2024/02/26 03:34:34;;;;;;;3.70;0.80;;;;;;;;;;5067754;28;20025;-63
2024/02/26 03:37:00;;;;;;;0.68;0.68;;;;;;;;;;5064988;28;20056;-63
2024/02/26 03:39:27;;;;;;;0.80;0.70;;;;;;;;;;5067959;28;20097;-62
2024/02/26 03:41:54;;;;;;;4.80;1.10;;;;;;;;;;5052129;28;20076;-61
2024/02/26 03:44:20;;;;;;;3.22;1.00;;;;;;;;;;5052868;28;20028;-62
2024/02/26 03:46:46;;;;;;;2.67;0.90;;;;;;;;;;5067541;28;20035;-62
2024/02/26 03:49:13;;;;;;;3.08;1.02;;;;;;;;;;5064477;28;20032;-63
2024/02/26 03:51:39;;;;;;;3.78;0.85;;;;;;;;;;5069362;28;20066;-60
2024/02/26 03:54:05;;;;;;;4.75;1.52;;;;;;;;;;5069323;28;20025;-61
2024/02/26 03:56:31;;;;;;;1.98;1.20;;;;;;;;;;5051192;28;20103;-63
2024/02/26 03:58:57;;;;;;;3.60;1.10;;;;;;;;;;5034523;28;20373;-63
2024/02/26 04:01:23;;;;;;;5.65;1.10;;;;;;;;;;5066786;28;20031;-61
2024/02/26 04:03:49;;;;;;;2.17;0.90;;;;;;;;;;5068356;28;20025;-63
2024/02/26 04:06:17;;;;;;;1.98;0.90;;;;;;;;;;5073324;28;20086;-63
2024/02/26 04:08:43;;;;;;;4.20;1.10;;;;;;;;;;5066510;28;20085;-62
2024/02/26 04:11:09;;;;;;;3.88;0.80;;;;;;;;;;5049803;28;20474;-62
2024/02/26 04:13:37;;;;;;;3.35;0.80;;;;;;;;;;5053845;28;20451;-62
2024/02/26 04:16:04;;;;;;;2.08;0.98;;;;;;;;;;5068676;28;20029;-61
2024/02/26 04:18:29;;;;;;;1.85;0.98;;;;;;;;;;5053126;28;20470;-62
2024/02/26 04:20:56;;;;;;;3.20;1.13;;;;;;;;;;5067536;28;20127;-63
2024/02/26 04:23:22;;;;;;;2.33;0.82;;;;;;;;;;5072791;28;20025;-63
2024/02/26 04:25:48;;;;;;;2.75;1.33;;;;;;;;;;5067526;28;20029;-63
2024/02/26 04:28:14;;;;;;;2.17;1.30;;;;;;;;;;5067931;28;20039;-61
2024/02/26 04:30:41;;;;;;;2.22;1.15;;;;;;;;;;5049508;28;20467;-64
2024/02/26 04:33:07;;;;;;;2.95;1.08;;;;;;;;;;5050638;28;20071;-64
2024/02/26 04:35:35;;;;;;;2.08;1.15;;;;;;;;;;5070186;28;20481;-61
2024/02/26 04:38:01;;;;;;;3.55;1.42;;;;;;;;;;5065288;28;20024;-64
2024/02/26 04:40:27;;;;;;;2.53;1.30;;;;;;;;;;5067269;28;20028;-63
2024/02/26 04:42:53;;;;;;;3.10;1.25;;;;;;;;;;5068554;28;20048;-64
2024/02/26 04:45:19;;;;;;;7.75;1.10;;;;;;;;;;5069007;28;20052;-62
2024/02/26 04:47:45;;;;;;;2.20;1.23;;;;;;;;;;5068586;28;20021;-64
2024/02/26 04:50:11;;;;;;;2.13;1.00;;;;;;;;;;5069297;28;20025;-64
2024/02/26 04:52:37;;;;;;;2.50;1.40;;;;;;;;;;5067153;28;20549;-64
2024/02/26 04:55:03;;;;;;;2.25;1.10;;;;;;;;;;5067720;28;20032;-64
2024/02/26 04:57:29;;;;;;;1.50;1.00;;;;;;;;;;5072055;28;20020;-65
2024/02/26 04:59:55;;;;;;;2.30;1.38;;;;;;;;;;5073327;28;20031;-63
2024/02/26 05:02:21;;;;;;;2.45;1.30;;;;;;;;;;5066717;28;20110;-62
2024/02/26 05:04:47;;;;;;;1.83;1.20;;;;;;;;;;5071716;28;20028;-61
2024/02/26 05:07:13;;;;;;;1.05;0.98;;;;;;;;;;5072778;28;20090;-61
2024/02/26 05:09:39;;;;;;;2.45;1.10;;;;;;;;;;5069506;28;20111;-61
2024/02/26 05:12:05;;;;;;;2.47;1.08;;;;;;;;;;5069653;28;20107;-63
2024/02/26 05:14:31;;;;;;;1.23;0.98;;;;;;;;;;5074555;28;20097;-62
2024/02/26 05:16:57;;;;;;;21.75;1.50;;;;;;;;;;5075392;28;20041;-62
2024/02/26 05:19:23;;;;;;;1.63;1.10;;;;;;;;;;5072529;28;20036;-63
2024/02/26 05:21:50;;;;;;;7.10;0.85;;;;;;;;;;5072729;28;20055;-64
2024/02/26 05:24:17;;;;;;;2.88;1.10;;;;;;;;;;5076837;28;20505;-62
2024/02/26 05:26:43;;;;;;;1.70;1.00;;;;;;;;;;5068489;28;20028;-63
2024/02/26 05:29:09;;;;;;;3.90;1.17;;;;;;;;;;5072788;28;20029;-63
2024/02/26 05:31:35;;;;;;;1.70;1.13;;;;;;;;;;5073175;28;20075;-63
2024/02/26 05:34:00;;;;;;;1.42;0.90;;;;;;;;;;5075623;28;20025;-64
2024/02/26 05:36:32;;;;;;;2.38;0.93;;;;;;;;;;5075126;28;20205;-62
2024/02/26 05:38:58;;;;;;;1.83;1.05;;;;;;;;;;5074248;28;20352;-64
2024/02/26 05:41:26;;;;;;;1.67;0.90;;;;;;;;;;5071719;28;20043;-64
2024/02/26 05:43:52;;;;;;;2.78;0.80;;;;;;;;;;5080858;28;20020;-64
2024/02/26 05:46:18;;;;;;;3.55;1.38;;;;;;;;;;5072959;28;20032;-63
2024/02/26 05:48:48;;;;;;;1.30;0.80;;;;;;;;;;5080414;28;20016;-61
2024/02/26 05:51:14;;;;;;;2.08;0.93;;;;;;;;;;5073004;28;20020;-63
2024/02/26 05:53:41;;;;;;;1.95;0.80;;;;;;;;;;5072526;28;20012;-63
2024/02/26 05:56:07;;;;;;;1.05;0.73;;;;;;;;;;5073032;28;20027;-63
2024/02/26 05:58:33;;;;;;;0.93;0.82;;;;;;;;;;5076945;28;20027;-63
2024/02/26 06:01:02;;;;;;;1.25;1.00;;;;;;;;;;5071195;28;20448;-63
2024/02/26 06:03:28;;;;;;;2.05;1.10;;;;;;;;;;5067573;28;20024;-63
2024/02/26 06:05:54;;;;;;;1.10;0.80;;;;;;;;;;5066225;28;20024;-64
2024/02/26 06:08:20;;;;;;;2.45;1.73;;;;;;;;;;5077766;28;20047;-63
2024/02/26 06:10:47;;;;;;;3.20;1.10;;;;;;;;;;5072195;28;20127;-63
2024/02/26 06:13:12;;;;;;;3.63;0.88;;;;;;;;;;5070644;28;20141;-63
2024/02/26 06:15:38;;;;;;;1.85;0.95;;;;;;;;;;5074226;28;20457;-65
2024/02/26 06:18:04;;;;;;;2.90;1.13;;;;;;;;;;5065966;28;20043;-64
2024/02/26 06:20:30;;;;;;;2.75;1.00;;;;;;;;;;5070248;28;20386;-63
2024/02/26 06:22:56;;;;;;;3.70;0.80;;;;;;;;;;5068527;28;20025;-63
2024/02/26 06:25:22;;;;;;;1.67;1.02;;;;;;;;;;5073427;28;20016;-63
2024/02/26 06:27:48;;;;;;;1.65;0.70;;;;;;;;;;5068977;28;20035;-64
2024/02/26 06:30:14;;;;;;;2.85;1.10;;;;;;;;;;5071466;28;20025;-63
2024/02/26 06:32:40;;;;;;;3.65;1.33;;;;;;;;;;5077579;28;20020;-63
2024/02/26 06:35:08;;;;;;;9.05;1.13;;;;;;;;;;5073718;28;20028;-64
2024/02/26 06:37:34;;;;;;;1.10;0.93;;;;;;;;;;5071459;28;20020;-64
2024/02/26 06:40:03;;;;;;;3.75;1.05;;;;;;;;;;5071279;28;20438;-64
2024/02/26 06:42:30;;;;;;;2.50;0.93;;;;;;;;;;5070505;28;20052;-64
2024/02/26 06:44:56;;;;;;;4.47;2.60;;;;;;;;;;5071328;28;20435;-62
2024/02/26 06:47:22;;;;;;;2.47;1.33;;;;;;;;;;5070054;28;20028;-64
2024/02/26 06:49:48;;;;;;;1.25;1.15;;;;;;;;;;5070801;28;20058;-64
2024/02/26 06:52:14;;;;;;;2.38;0.90;;;;;;;;;;5077713;28;20439;-64
2024/02/26 06:54:40;;;;;;;8.18;1.13;;;;;;;;;;5069774;28;20402;-65
2024/02/26 06:57:06;;;;;;;4.32;1.25;;;;;;;;;;5070987;28;20031;-64
2024/02/26 06:59:31;;;;;;;1.85;1.33;;;;;;;;;;5078000;28;20028;-65
2024/02/26 07:01:57;;;;;;;1.77;1.30;;;;;;;;;;5073156;28;20141;-64
2024/02/26 07:04:23;;;;;;;2.90;1.23;;;;;;;;;;5069158;28;20035;-64
2024/02/26 07:06:49;;;;;;;2.38;1.23;;;;;;;;;;5072396;28;20028;-63
2024/02/26 07:09:15;;;;;;;1.85;1.13;;;;;;;;;;5071199;28;20040;-63
2024/02/26 07:11:42;;;;;;;5.80;1.88;;;;;;;;;;5076049;28;20073;-64
2024/02/26 07:14:11;;;;;;;2.35;1.30;;;;;;;;;;5069507;28;20016;-63
2024/02/26 07:16:37;;;;;;;3.20;1.90;;;;;;;;;;5067716;28;20021;-64
2024/02/26 07:19:03;;;;;;;2.50;1.48;;;;;;;;;;5076595;28;20031;-63
2024/02/26 07:21:29;;;;;;;3.30;1.63;;;;;;;;;;5078579;28;20031;-62
2024/02/26 07:23:55;;;;;;;2.88;1.70;;;;;;;;;;5068945;28;20021;-64
2024/02/26 07:26:24;;;;;;;1.95;1.33;;;;;;;;;;5071590;28;20512;-63
2024/02/26 07:28:50;;;;;;;2.38;1.40;;;;;;;;;;5069452;28;20024;-63
2024/02/26 07:31:16;;;;;;;2.58;1.40;;;;;;;;;;5072657;28;20061;-63
2024/02/26 07:33:42;;;;;;;1.38;0.98;;;;;;;;;;5071801;28;20470;-63
2024/02/26 07:36:08;;;;;;;6.57;1.42;;;;;;;;;;5071162;28;20027;-64
2024/02/26 07:38:34;;;;;;;5.28;1.58;;;;;;;;;;5069353;28;20098;-63
2024/02/26 07:41:00;;;;;;;2.30;1.27;;;;;;;;;;5067966;28;20032;-63
2024/02/26 07:43:25;;;;;;;6.07;1.60;;;;;;;;;;5070859;28;20035;-63
2024/02/26 07:45:51;;;;;;;2.28;1.00;;;;;;;;;;5064843;28;20033;-61
2024/02/26 07:48:17;;;;;;;2.30;1.40;;;;;;;;;;5067758;28;20025;-62
2024/02/26 07:50:43;;;;;;;2.00;1.17;;;;;;;;;;5066754;28;20104;-62
2024/02/26 07:53:10;;;;;;;2.40;1.30;;;;;;;;;;5051307;28;20111;-63
2024/02/26 07:55:35;;;;;;;4.25;1.65;;;;;;;;;;5072604;28;20013;-61
2024/02/26 07:58:01;;;;;;;4.05;1.00;;;;;;;;;;5073094;28;20044;-62
2024/02/26 08:00:27;;;;;;;5.28;1.70;;;;;;;;;;5066097;28;20017;-62
2024/02/26 08:02:53;;;;;;;2.03;1.30;;;;;;;;;;5052928;28;20154;-62
2024/02/26 08:05:19;;;;;;;2.72;1.63;;;;;;;;;;5064040;28;20436;-61
2024/02/26 08:07:45;;;;;;;3.13;1.35;;;;;;;;;;5062470;28;20473;-62
2024/02/26 08:10:11;;;;;;;1.60;0.93;;;;;;;;;;5061353;28;20095;-62
2024/02/26 08:12:37;;;;;;;1.63;1.27;;;;;;;;;;5070843;28;20021;-62
2024/02/26 08:15:04;;;;;;;1.95;1.40;;;;;;;;;;5064173;28;20359;-62
2024/02/26 08:17:30;;;;;;;1.85;1.27;;;;;;;;;;5070354;28;20105;-62
2024/02/26 08:19:57;;;;;;;2.17;1.00;;;;;;;;;;5066669;28;20032;-62
2024/02/26 08:22:23;;;;;;;1.63;1.17;;;;;;;;;;5068832;28;20126;-63
2024/02/26 08:24:49;;;;;;;1.92;1.30;;;;;;;;;;5067330;28;20017;-62
2024/02/26 08:27:15;;;;;;;4.07;1.80;;;;;;;;;;5071324;28;20023;-63
2024/02/26 08:29:41;;;;;;;3.90;1.38;;;;;;;;;;5066454;28;20409;-62
2024/02/26 08:32:07;;;;;;;1.52;1.08;;;;;;;;;;5066924;28;20111;-63
2024/02/26 08:34:33;;;;;;;4.07;1.77;;;;;;;;;;5071800;28;20019;-62
2024/02/26 08:36:59;;;;;;;3.85;1.60;;;;;;;;;;5067068;28;20044;-63
2024/02/26 08:39:25;;;;;;;2.92;1.35;;;;;;;;;;5064854;28;20441;-64
2024/02/26 08:41:51;;;;;;;4.45;1.38;;;;;;;;;;5065356;28;20098;-64
2024/02/26 08:44:17;;;;;;;3.65;1.80;;;;;;;;;;5063999;28;20048;-63
2024/02/26 08:46:45;;;;;;;2.45;1.23;;;;;;;;;;5069509;28;20028;-63
2024/02/26 08:49:11;;;;;;;1.60;1.30;;;;;;;;;;5074690;28;20012;-64
2024/02/26 08:51:42;;;;;;;2.15;1.30;;;;;;;;;;5068608;28;20476;-63
2024/02/26 08:54:08;;;;;;;5.10;1.25;;;;;;;;;;5064626;28;20020;-63
2024/02/26 08:56:34;;;;;;;2.63;1.25;;;;;;;;;;5077390;28;20066;-63
2024/02/26 08:59:03;;;;;;;3.90;1.40;;;;;;;;;;5068767;28;20032;-64
2024/02/26 09:01:29;;;;;;;2.85;1.67;;;;;;;;;;5043633;28;20052;-61
2024/02/26 09:03:56;;;;;;;3.17;1.33;;;;;;;;;;5071026;28;20142;-63
2024/02/26 09:06:22;;;;;;;3.92;1.20;;;;;;;;;;5073305;28;20157;-63
2024/02/26 09:08:47;;;;;;;3.28;1.60;;;;;;;;;;5074206;28;20054;-62
2024/02/26 09:11:13;;;;;;;2.72;1.45;;;;;;;;;;5068682;28;20036;-62
2024/02/26 09:13:39;;;;;;;3.90;1.42;;;;;;;;;;5066691;28;20036;-63
2024/02/26 09:16:06;;;;;;;2.00;1.50;;;;;;;;;;5066898;28;20138;-63
2024/02/26 09:18:32;;;;;;;2.50;1.60;;;;;;;;;;5074910;28;20107;-62
2024/02/26 09:20:58;;;;;;;6.57;2.17;;;;;;;;;;5070373;28;20021;-63
2024/02/26 09:23:24;;;;;;;4.20;1.45;;;;;;;;;;5066815;28;20031;-62
2024/02/26 09:25:50;;;;;;;2.17;1.50;;;;;;;;;;5051996;28;20104;-62
2024/02/26 09:28:17;;;;;;;1.42;1.15;;;;;;;;;;5075624;28;20029;-63
2024/02/26 09:30:43;;;;;;;3.00;1.58;;;;;;;;;;5066188;28;20028;-62
2024/02/26 09:33:09;;;;;;;6.70;1.88;;;;;;;;;;5073159;28;20102;-63
2024/02/26 09:35:35;;;;;;;2.67;1.40;;;;;;;;;;5063256;28;20029;-62
2024/02/26 09:38:01;;;;;;;3.28;2.22;;;;;;;;;;5070381;28;20135;-64
2024/02/26 09:40:27;;;;;;;1.75;1.30;;;;;;;;;;5048405;28;20033;-64
2024/02/26 09:42:57;;;;;;;2.17;1.45;;;;;;;;;;5067737;28;20021;-64
2024/02/26 09:45:25;;;;;;;9.15;2.50;;;;;;;;;;5070288;28;20071;-63
2024/02/26 09:47:51;;;;;;;3.33;1.48;;;;;;;;;;5065036;28;20029;-63
2024/02/26 09:50:17;;;;;;;5.90;1.73;;;;;;;;;;5072761;28;20075;-63
2024/02/26 09:52:44;;;;;;;5.90;2.15;;;;;;;;;;5074155;28;20071;-63
2024/02/26 09:55:10;;;;;;;2.33;1.30;;;;;;;;;;5072241;28;20552;-64
2024/02/26 09:57:38;;;;;;;2.78;1.55;;;;;;;;;;5070152;28;20023;-64
2024/02/26 10:00:05;;;;;;;5.78;1.30;;;;;;;;;;5050956;28;20033;-64
2024/02/26 10:02:33;;;;;;;3.78;1.88;;;;;;;;;;5070951;28;20028;-64
2024/02/26 10:05:01;;;;;;;5.05;2.50;;;;;;;;;;5075694;28;20536;-63
2024/02/26 10:07:30;;;;;;;3.95;1.73;;;;;;;;;;5073865;28;20047;-64
2024/02/26 10:09:56;;;;;;;3.53;1.63;;;;;;;;;;5059910;28;20063;-63
2024/02/26 10:12:22;;;;;;;4.63;1.92;;;;;;;;;;5067814;28;20059;-65
2024/02/26 10:14:48;;;;;;;3.70;1.27;;;;;;;;;;5076951;28;20020;-64
2024/02/26 10:17:14;;;;;;;3.50;1.40;;;;;;;;;;5073116;28;20391;-64
2024/02/26 10:19:40;;;;;;;5.95;2.38;;;;;;;;;;5070385;28;20033;-64
2024/02/26 10:22:06;;;;;;;3.05;1.70;;;;;;;;;;5072816;28;20035;-64
2024/02/26 10:24:32;;;;;;;2.55;1.80;;;;;;;;;;5073376;28;20554;-64
2024/02/26 10:26:58;;;;;;;3.10;1.75;;;;;;;;;;5075506;28;20028;-64
2024/02/26 10:29:25;;;;;;;3.65;1.63;;;;;;;;;;5070819;28;20021;-64
2024/02/26 10:31:51;;;;;;;4.85;1.85;;;;;;;;;;5067306;28;20024;-64
2024/02/26 10:34:17;;;;;;;5.30;1.75;;;;;;;;;;5077736;28;20501;-65
2024/02/26 10:36:43;;;;;;;4.47;2.20;;;;;;;;;;5074869;28;20048;-64
2024/02/26 10:39:10;;;;;;;2.65;1.88;;;;;;;;;;5071514;28;20122;-64
2024/02/26 10:41:36;;;;;;;4.35;2.10;;;;;;;;;;5077298;28;20034;-64
2024/02/26 10:44:02;;;;;;;4.85;1.88;;;;;;;;;;5071609;28;20107;-64
2024/02/26 10:46:28;;;;;;;2.38;1.80;;;;;;;;;;5065938;28;20166;-64
2024/02/26 10:48:54;;;;;;;3.70;1.65;;;;;;;;;;5066335;28;20151;-64
2024/02/26 10:51:30;;;;;;;3.40;1.70;;;;;;;;;;5065722;28;20047;-64
2024/02/26 10:53:59;;;;;;;2.83;1.80;;;;;;;;;;5063777;28;20025;-64
2024/02/26 10:56:29;;;;;;;2.05;1.30;;;;;;;;;;5057579;28;20021;-64
2024/02/26 10:58:58;;;;;;;5.40;1.70;;;;;;;;;;5069551;28;20096;-65
2024/02/26 11:01:25;;;;;;;4.05;1.73;;;;;;;;;;5068104;28;20082;-65
2024/02/26 11:03:51;;;;;;;4.15;1.95;;;;;;;;;;5071336;28;20020;-66
2024/02/26 11:06:18;;;;;;;7.10;1.48;;;;;;;;;;5069287;28;20028;-65
2024/02/26 11:08:44;;;;;;;2.83;2.10;;;;;;;;;;5068489;28;20017;-65
2024/02/26 11:11:15;;;;;;;3.75;2.15;;;;;;;;;;5073487;28;20047;-63
2024/02/26 11:13:42;;;;;;;3.13;1.67;;;;;;;;;;5062185;28;20048;-64
2024/02/26 11:16:08;;;;;;;4.20;2.35;;;;;;;;;;5049531;28;20429;-65
2024/02/26 11:18:34;;;;;;;1.73;1.55;;;;;;;;;;5047936;28;20032;-65
2024/02/26 11:21:01;;;;;;;3.85;1.70;;;;;;;;;;5072158;28;20055;-65
2024/02/26 11:23:27;;;;;;;1.92;1.45;;;;;;;;;;5066080;28;20433;-62
2024/02/26 11:25:54;;;;;;;3.28;1.98;;;;;;;;;;5063317;28;20082;-63
2024/02/26 11:28:21;;;;;;;7.47;2.35;;;;;;;;;;5066700;28;20036;-66
2024/02/26 11:30:48;;;;;;;2.25;1.50;;;;;;;;;;5070472;28;20089;-65
2024/02/26 11:33:15;;;;;;;2.10;1.40;;;;;;;;;;5072951;28;20024;-65
2024/02/26 11:35:42;;;;;;;4.40;1.95;;;;;;;;;;5073574;28;20812;-65
2024/02/26 11:38:08;;;;;;;3.38;1.50;;;;;;;;;;5066385;28;20033;-65
2024/02/26 11:40:39;;;;;;;3.85;1.35;;;;;;;;;;5065120;28;20426;-65
2024/02/26 11:43:05;;;;;;;1.73;1.13;;;;;;;;;;5069242;28;20020;-66
2024/02/26 11:45:46;;;;;;;3.58;1.40;;;;;;;;;;5065975;28;20154;-65
2024/02/26 11:48:12;;;;;;;6.18;1.42;;;;;;;;;;5060946;28;20150;-65
2024/02/26 11:50:55;;;;;;;1.88;1.20;;;;;;;;;;5061978;28;20028;-65
2024/02/26 11:53:31;;;;;;;3.17;1.52;;;;;;;;;;5068626;28;20103;-67
2024/02/26 11:56:15;;;;;;;3.20;1.75;;;;;;;;;;5066052;28;20032;-65
2024/02/26 11:58:41;;;;;;;3.15;1.73;;;;;;;;;;5063730;28;20058;-66
2024/02/26 12:01:31;;;;;;;2.20;1.35;;;;;;;;;;5062712;28;20036;-66
2024/02/26 12:03:57;;;;;;;6.18;2.45;;;;;;;;;;5054663;28;20094;-66
2024/02/26 12:06:23;;;;;;;7.85;1.52;;;;;;;;;;5060212;28;20064;-65
2024/02/26 12:08:49;;;;;;;3.95;1.75;;;;;;;;;;5064956;28;20063;-66
2024/02/26 12:11:16;;;;;;;3.08;1.65;;;;;;;;;;5064520;28;20525;-66
2024/02/26 12:13:43;;;;;;;3.25;1.45;;;;;;;;;;5064434;28;20036;-66
2024/02/26 12:16:09;;;;;;;4.00;1.90;;;;;;;;;;5066616;28;20074;-66
2024/02/26 12:18:35;;;;;;;3.72;1.73;;;;;;;;;;5046941;28;20108;-66
2024/02/26 12:21:01;;;;;;;1.63;1.25;;;;;;;;;;5064412;28;20033;-66
2024/02/26 12:23:28;;;;;;;6.70;1.70;;;;;;;;;;5062285;28;20021;-66
2024/02/26 12:25:54;;;;;;;3.88;1.67;;;;;;;;;;5063845;28;20028;-65
2024/02/26 12:28:21;;;;;;;3.85;1.67;;;;;;;;;;5066662;28;20398;-66
2024/02/26 12:30:47;;;;;;;4.00;1.70;;;;;;;;;;5064547;28;20033;-65
2024/02/26 12:33:13;;;;;;;2.00;1.27;;;;;;;;;;5061307;28;20021;-65
2024/02/26 12:35:39;;;;;;;4.25;1.58;;;;;;;;;;5064780;28;20024;-65
2024/02/26 12:38:05;;;;;;;2.75;1.58;;;;;;;;;;5063387;28;20367;-65
2024/02/26 12:40:31;;;;;;;4.80;1.77;;;;;;;;;;5068118;28;20028;-65
2024/02/26 12:42:58;;;;;;;4.15;1.80;;;;;;;;;;5062515;28;20536;-65
2024/02/26 12:45:26;;;;;;;5.53;2.17;;;;;;;;;;5062699;28;20116;-66
2024/02/26 12:47:52;;;;;;;3.17;1.80;;;;;;;;;;5063414;28;20058;-65
2024/02/26 12:50:18;;;;;;;6.13;2.10;;;;;;;;;;5066237;28;20124;-67
2024/02/26 12:52:45;;;;;;;5.72;1.95;;;;;;;;;;5065242;28;20090;-66
2024/02/26 12:55:13;;;;;;;4.15;1.85;;;;;;;;;;5067166;28;20025;-66
2024/02/26 12:57:41;;;;;;;3.80;1.60;;;;;;;;;;5064772;28;20039;-65
2024/02/26 13:00:11;;;;;;;4.20;2.15;;;;;;;;;;5065397;28;20063;-65
2024/02/26 13:02:37;;;;;;;3.83;1.75;;;;;;;;;;5058438;28;20082;-65
2024/02/26 13:05:04;;;;;;;3.83;2.13;;;;;;;;;;5049286;28;20124;-64
2024/02/26 13:07:30;;;;;;;3.30;1.75;;;;;;;;;;5060905;28;20040;-64
2024/02/26 13:09:56;;;;;;;3.15;1.75;;;;;;;;;;5068655;28;20043;-64
2024/02/26 13:12:22;;;;;;;3.75;1.98;;;;;;;;;;5067274;28;20035;-65
2024/02/26 13:14:48;;;;;;;2.05;1.52;;;;;;;;;;5062346;28;20036;-65
2024/02/26 13:17:14;;;;;;;3.35;1.70;;;;;;;;;;5068541;28;20024;-65
2024/02/26 13:19:50;;;;;;;4.50;2.05;;;;;;;;;;5069478;28;20028;-65
2024/02/26 13:22:16;;;;;;;2.70;1.65;;;;;;;;;;5066683;28;20052;-66
2024/02/26 13:24:42;;;;;;;5.00;2.30;;;;;;;;;;5065441;28;20462;-65
2024/02/26 13:27:08;;;;;;;3.30;1.77;;;;;;;;;;5071406;28;20409;-65
2024/02/26 13:29:34;;;;;;;3.20;1.77;;;;;;;;;;5066310;28;20074;-65
2024/02/26 13:32:00;;;;;;;6.05;2.05;;;;;;;;;;5068513;28;20064;-65
2024/02/26 13:34:27;;;;;;;4.60;1.90;;;;;;;;;;5069067;28;20502;-66
2024/02/26 13:36:54;;;;;;;5.28;2.08;;;;;;;;;;5069901;28;20062;-66
2024/02/26 13:39:24;;;;;;;4.60;2.00;;;;;;;;;;5068126;28;20024;-65
2024/02/26 13:41:50;;;;;;;2.83;1.80;;;;;;;;;;5062613;28;20031;-65
2024/02/26 13:44:16;;;;;;;7.25;2.53;;;;;;;;;;5069972;28;20028;-65
2024/02/26 13:46:42;;;;;;;6.20;2.75;;;;;;;;;;5067359;28;20035;-65
2024/02/26 13:49:09;;;;;;;5.07;2.13;;;;;;;;;;5063688;28;20495;-65
2024/02/26 13:51:36;;;;;;;5.45;1.88;;;;;;;;;;5070909;28;20059;-65
2024/02/26 13:54:02;;;;;;;3.03;2.38;;;;;;;;;;5064758;28;20498;-65
2024/02/26 13:56:28;;;;;;;5.03;2.22;;;;;;;;;;5068747;28;20107;-64
2024/02/26 13:58:54;;;;;;;4.72;1.83;;;;;;;;;;5068609;28;20050;-65
2024/02/26 14:01:20;;;;;;;4.55;2.22;;;;;;;;;;5067904;28;20490;-65
2024/02/26 14:03:46;;;;;;;3.72;1.92;;;;;;;;;;5067291;28;20059;-64
2024/02/26 14:06:12;;;;;;;7.97;2.47;;;;;;;;;;5077536;28;20069;-65
2024/02/26 14:08:38;;;;;;;4.75;2.50;;;;;;;;;;5073221;28;20112;-65
2024/02/26 14:11:04;;;;;;;3.85;2.40;;;;;;;;;;5074361;28;20082;-63
2024/02/26 14:13:30;;;;;;;3.55;1.92;;;;;;;;;;5078011;28;20047;-65
2024/02/26 14:15:57;;;;;;;4.20;2.15;;;;;;;;;;5077461;28;20025;-66
2024/02/26 14:18:23;;;;;;;4.10;2.53;;;;;;;;;;5064636;28;20056;-65
2024/02/26 14:20:49;;;;;;;4.80;2.55;;;;;;;;;;5069799;28;20047;-65
2024/02/26 14:23:15;;;;;;;7.05;3.05;;;;;;;;;;5041864;28;20052;-64
2024/02/26 14:25:41;;;;;;;5.97;2.97;;;;;;;;;;5072757;28;20020;-63
2024/02/26 14:28:07;;;;;;;4.38;2.60;;;;;;;;;;5068663;28;20020;-64
2024/02/26 14:30:33;;;;;;;5.68;3.50;;;;;;;;;;5069922;28;20032;-66
2024/02/26 14:32:59;;;;;;;5.47;2.67;;;;;;;;;;5066133;28;20033;-65
2024/02/26 14:35:26;;;;;;;7.78;2.92;;;;;;;;;;5067188;28;21007;-64
2024/02/26 14:37:52;;;;;;;9.13;4.10;;;;;;;;;;5063190;28;20020;-63